sensor_id;sensor_type;location;lat;lon;timestamp;pressure;altitude;pressure_sealevel;temperature;humidity
3960;BME280;1994;48.640;8.894;2022-09-25T00:01:37;95756.94;;;12.68;100.00
3960;BME280;1994;48.640;8.894;2022-09-25T00:04:03;95756.44;;;12.66;100.00
3960;BME280;1994;48.640;8.894;2022-09-25T00:06:29;95757.91;;;12.52;100.00
3960;BME280;1994;48.640;8.894;2022-09-25T00:08:55;95759.47;;;12.43;100.00
3960;BME280;1994;48.640;8.894;2022-09-25T00:11:31;95759.19;;;12.44;100.00
3960;BME280;1994;48.640;8.894;2022-09-25T00:13:59;95753.50;;;12.47;100.00
3960;BME280;1994;48.640;8.894;2022-09-25T00:16:28;95762.09;;;12.48;100.00
3960;BME280;1994;48.640;8.894;2022-09-25T00:18:56;95753.25;;;12.49;100.00
3960;BME280;1994;48.640;8.894;2022-09-25T00:21:41;95757.38;;;12.45;100.00
3960;BME280;1994;48.640;8.894;2022-09-25T00:24:09;95754.75;;;12.40;100.00
3960;BME280;1994;48.640;8.894;2022-09-25T00:26:39;95754.72;;;12.35;100.00
3960;BME280;1994;48.640;8.894;2022-09-25T00:29:06;95749.28;;;12.36;100.00
3960;BME280;1994;48.640;8.894;2022-09-25T00:31:32;95752.13;;;12.35;100.00
3960;BME280;1994;48.640;8.894;2022-09-25T00:34:00;95747.50;;;12.37;100.00
3960;BME280;1994;48.640;8.894;2022-09-25T00:36:27;95749.53;;;12.35;100.00
3960;BME280;1994;48.640;8.894;2022-09-25T00:38:53;95740.72;;;12.41;100.00
3960;BME280;1994;48.640;8.894;2022-09-25T00:41:21;95735.78;;;12.34;100.00
3960;BME280;1994;48.640;8.894;2022-09-25T00:43:51;95729.81;;;12.34;100.00
3960;BME280;1994;48.640;8.894;2022-09-25T00:46:20;95729.75;;;12.24;100.00
3960;BME280;1994;48.640;8.894;2022-09-25T00:49:13;95721.66;;;12.15;100.00
3960;BME280;1994;48.640;8.894;2022-09-25T00:51:49;95722.44;;;12.11;100.00
3960;BME280;1994;48.640;8.894;2022-09-25T00:54:28;95720.31;;;12.08;100.00
3960;BME280;1994;48.640;8.894;2022-09-25T00:56:56;95729.88;;;11.97;100.00
3960;BME280;1994;48.640;8.894;2022-09-25T00:59:37;95728.31;;;11.96;100.00
3960;BME280;1994;48.640;8.894;2022-09-25T01:02:03;95728.06;;;12.03;100.00
3960;BME280;1994;48.640;8.894;2022-09-25T01:04:32;95716.34;;;11.95;100.00
3960;BME280;1994;48.640;8.894;2022-09-25T01:06:59;95716.66;;;11.99;100.00
3960;BME280;1994;48.640;8.894;2022-09-25T01:09:26;95714.53;;;11.91;100.00
3960;BME280;1994;48.640;8.894;2022-09-25T01:11:52;95716.06;;;11.92;100.00
3960;BME280;1994;48.640;8.894;2022-09-25T01:14:19;95717.16;;;11.96;100.00
3960;BME280;1994;48.640;8.894;2022-09-25T01:17:06;95722.41;;;12.06;100.00
3960;BME280;1994;48.640;8.894;2022-09-25T01:20:02;95724.91;;;11.91;100.00
3960;BME280;1994;48.640;8.894;2022-09-25T01:25:58;95719.56;;;11.71;100.00
3960;BME280;1994;48.640;8.894;2022-09-25T01:29:00;95729.19;;;11.70;100.00
3960;BME280;1994;48.640;8.894;2022-09-25T01:37:36;95713.75;;;11.90;100.00
3960;BME280;1994;48.640;8.894;2022-09-25T01:40:55;95711.94;;;11.96;100.00
3960;BME280;1994;48.640;8.894;2022-09-25T01:43:52;95717.66;;;11.93;100.00
3960;BME280;1994;48.640;8.894;2022-09-25T01:46:28;95721.06;;;11.98;100.00
3960;BME280;1994;48.640;8.894;2022-09-25T01:48:58;95729.66;;;12.04;100.00
3960;BME280;1994;48.640;8.894;2022-09-25T01:51:45;95727.59;;;12.06;100.00
3960;BME280;1994;48.640;8.894;2022-09-25T01:54:27;95729.66;;;12.04;100.00
3960;BME280;1994;48.640;8.894;2022-09-25T01:57:03;95730.69;;;12.03;100.00
3960;BME280;1994;48.640;8.894;2022-09-25T01:59:53;95727.06;;;12.09;100.00
3960;BME280;1994;48.640;8.894;2022-09-25T02:02:27;95712.56;;;12.13;100.00
3960;BME280;1994;48.640;8.894;2022-09-25T02:05:12;95718.78;;;12.12;100.00
3960;BME280;1994;48.640;8.894;2022-09-25T02:07:48;95700.59;;;12.07;100.00
3960;BME280;1994;48.640;8.894;2022-09-25T02:10:23;95704.22;;;12.06;100.00
3960;BME280;1994;48.640;8.894;2022-09-25T02:12:55;95709.94;;;12.08;100.00
3960;BME280;1994;48.640;8.894;2022-09-25T02:15:33;95712.56;;;12.13;100.00
3960;BME280;1994;48.640;8.894;2022-09-25T02:18:03;95715.66;;;12.05;100.00
3960;BME280;1994;48.640;8.894;2022-09-25T02:21:02;95714.56;;;12.01;100.00
3960;BME280;1994;48.640;8.894;2022-09-25T02:26:12;95720.78;;;11.95;100.00
3960;BME280;1994;48.640;8.894;2022-09-25T02:28:42;95719.44;;;11.87;100.00
3960;BME280;1994;48.640;8.894;2022-09-25T02:31:11;95719.59;;;11.76;100.00
3960;BME280;1994;48.640;8.894;2022-09-25T02:33:38;95721.16;;;11.72;100.00
3960;BME280;1994;48.640;8.894;2022-09-25T02:36:04;95719.59;;;11.76;100.00
3960;BME280;1994;48.640;8.894;2022-09-25T02:38:32;95718.59;;;11.77;100.00
3960;BME280;1994;48.640;8.894;2022-09-25T02:47:43;95733.31;;;11.66;100.00
3960;BME280;1994;48.640;8.894;2022-09-25T02:50:34;95731.97;;;11.64;100.00
3960;BME280;1994;48.640;8.894;2022-09-25T02:53:25;95723.13;;;11.60;100.00
3960;BME280;1994;48.640;8.894;2022-09-25T02:59:06;95724.47;;;11.67;100.00
3960;BME280;1994;48.640;8.894;2022-09-25T03:01:37;95710.25;;;11.75;100.00
3960;BME280;1994;48.640;8.894;2022-09-25T03:04:06;95715.00;;;11.83;100.00
3960;BME280;1994;48.640;8.894;2022-09-25T03:06:33;95710.34;;;11.85;100.00
3960;BME280;1994;48.640;8.894;2022-09-25T03:08:59;95698.41;;;11.84;100.00
3960;BME280;1994;48.640;8.894;2022-09-25T03:11:27;95701.03;;;11.89;100.00
3960;BME280;1994;48.640;8.894;2022-09-25T03:14:01;95700.78;;;11.90;100.00
3960;BME280;1994;48.640;8.894;2022-09-25T03:16:50;95698.47;;;11.94;100.00
3960;BME280;1994;48.640;8.894;2022-09-25T03:19:17;95698.19;;;11.95;100.00
3960;BME280;1994;48.640;8.894;2022-09-25T03:21:45;95692.75;;;11.97;100.00
3960;BME280;1994;48.640;8.894;2022-09-25T03:24:12;95701.09;;;11.99;100.00
3960;BME280;1994;48.640;8.894;2022-09-25T03:26:38;95702.13;;;12.03;100.00
3960;BME280;1994;48.640;8.894;2022-09-25T03:29:05;95711.69;;;11.92;100.00
3960;BME280;1994;48.640;8.894;2022-09-25T03:31:31;95709.59;;;11.94;100.00
3960;BME280;1994;48.640;8.894;2022-09-25T03:33:57;95709.88;;;11.98;100.00
3960;BME280;1994;48.640;8.894;2022-09-25T03:36:28;95707.31;;;12.03;100.00
3960;BME280;1994;48.640;8.894;2022-09-25T03:38:57;95709.66;;;12.04;100.00
3960;BME280;1994;48.640;8.894;2022-09-25T03:41:27;95705.25;;;12.05;100.00
3960;BME280;1994;48.640;8.894;2022-09-25T03:43:54;95703.13;;;11.97;100.00
3960;BME280;1994;48.640;8.894;2022-09-25T03:46:24;95703.38;;;11.90;100.00
3960;BME280;1994;48.640;8.894;2022-09-25T03:48:52;95713.47;;;11.92;100.00
3960;BME280;1994;48.640;8.894;2022-09-25T03:51:19;95703.84;;;11.87;100.00
3960;BME280;1994;48.640;8.894;2022-09-25T03:53:45;95705.66;;;11.87;100.00
3960;BME280;1994;48.640;8.894;2022-09-25T03:56:14;95700.50;;;11.92;100.00
3960;BME280;1994;48.640;8.894;2022-09-25T03:58:42;95707.28;;;11.93;100.00
3960;BME280;1994;48.640;8.894;2022-09-25T04:01:08;95706.69;;;11.86;100.00
3960;BME280;1994;48.640;8.894;2022-09-25T04:03:35;95698.19;;;11.90;100.00
3960;BME280;1994;48.640;8.894;2022-09-25T04:06:03;95699.75;;;11.91;100.00
3960;BME280;1994;48.640;8.894;2022-09-25T04:08:31;95695.28;;;11.87;100.00
3960;BME280;1994;48.640;8.894;2022-09-25T04:10:58;95693.13;;;11.74;100.00
3960;BME280;1994;48.640;8.894;2022-09-25T04:13:34;95698.41;;;11.84;100.00
3960;BME280;1994;48.640;8.894;2022-09-25T04:16:02;95695.81;;;11.84;100.00
3960;BME280;1994;48.640;8.894;2022-09-25T04:18:29;95695.81;;;11.84;100.00
3960;BME280;1994;48.640;8.894;2022-09-25T04:20:59;95697.34;;;11.85;100.00
3960;BME280;1994;48.640;8.894;2022-09-25T04:23:25;95687.00;;;11.90;100.00
3960;BME280;1994;48.640;8.894;2022-09-25T04:25:51;95691.72;;;11.93;100.00
3960;BME280;1994;48.640;8.894;2022-09-25T04:28:17;95693.28;;;11.94;100.00
3960;BME280;1994;48.640;8.894;2022-09-25T04:30:43;95689.63;;;11.95;100.00
3960;BME280;1994;48.640;8.894;2022-09-25T04:33:09;95691.72;;;12.03;100.00
3960;BME280;1994;48.640;8.894;2022-09-25T04:35:54;95683.97;;;12.08;100.00
3960;BME280;1994;48.640;8.894;2022-09-25T04:38:21;95689.13;;;12.03;100.00
3960;BME280;1994;48.640;8.894;2022-09-25T04:40:47;95695.41;;;12.07;100.00
3960;BME280;1994;48.640;8.894;2022-09-25T04:43:13;95690.97;;;12.02;100.00
3960;BME280;1994;48.640;8.894;2022-09-25T04:45:38;95698.22;;;12.00;100.00
3960;BME280;1994;48.640;8.894;2022-09-25T04:48:05;95701.09;;;11.99;100.00
3960;BME280;1994;48.640;8.894;2022-09-25T04:50:31;95700.56;;;12.02;100.00
3960;BME280;1994;48.640;8.894;2022-09-25T04:52:58;95707.84;;;12.05;100.00
3960;BME280;1994;48.640;8.894;2022-09-25T04:55:25;95706.31;;;12.09;100.00
3960;BME280;1994;48.640;8.894;2022-09-25T04:57:54;95710.41;;;11.95;100.00
3960;BME280;1994;48.640;8.894;2022-09-25T05:00:21;95712.50;;;12.03;100.00
3960;BME280;1994;48.640;8.894;2022-09-25T05:02:47;95707.31;;;12.03;100.00
3960;BME280;1994;48.640;8.894;2022-09-25T05:05:14;95711.94;;;11.96;100.00
3960;BME280;1994;48.640;8.894;2022-09-25T05:07:52;95712.41;;;11.83;100.00
3960;BME280;1994;48.640;8.894;2022-09-25T05:10:20;95712.44;;;11.88;100.00
3960;BME280;1994;48.640;8.894;2022-09-25T05:12:46;95716.66;;;11.99;100.00
3960;BME280;1994;48.640;8.894;2022-09-25T05:15:15;95715.91;;;12.08;100.00
3960;BME280;1994;48.640;8.894;2022-09-25T05:17:40;95718.31;;;12.15;100.00
3960;BME280;1994;48.640;8.894;2022-09-25T05:20:07;95724.53;;;12.19;100.00
3960;BME280;1994;48.640;8.894;2022-09-25T05:22:33;95719.56;;;12.07;100.00
3960;BME280;1994;48.640;8.894;2022-09-25T05:24:59;95716.66;;;11.99;100.00
3960;BME280;1994;48.640;8.894;2022-09-25T05:27:24;95719.00;;;12.05;100.00
3960;BME280;1994;48.640;8.894;2022-09-25T05:29:50;95716.06;;;11.92;100.00
3960;BME280;1994;48.640;8.894;2022-09-25T05:32:16;95719.66;;;11.81;100.00
3960;BME280;1994;48.640;8.894;2022-09-25T05:34:43;95712.91;;;11.80;100.00
3960;BME280;1994;48.640;8.894;2022-09-25T05:37:09;95718.63;;;11.82;100.00
3960;BME280;1994;48.640;8.894;2022-09-25T05:39:34;95719.66;;;11.81;100.00
3960;BME280;1994;48.640;8.894;2022-09-25T05:42:00;95710.84;;;11.82;100.00
3960;BME280;1994;48.640;8.894;2022-09-25T05:44:26;95711.13;;;11.85;100.00
3960;BME280;1994;48.640;8.894;2022-09-25T05:46:53;95716.53;;;11.79;100.00
3960;BME280;1994;48.640;8.894;2022-09-25T05:49:21;95715.00;;;11.83;100.00
3960;BME280;1994;48.640;8.894;2022-09-25T05:51:48;95716.06;;;11.92;100.00
3960;BME280;1994;48.640;8.894;2022-09-25T05:54:13;95721.78;;;11.89;100.00
3960;BME280;1994;48.640;8.894;2022-09-25T05:56:39;95717.34;;;11.89;100.00
3960;BME280;1994;48.640;8.894;2022-09-25T05:59:05;95727.75;;;11.89;100.00
3960;BME280;1994;48.640;8.894;2022-09-25T06:01:31;95724.38;;;11.89;100.00
3960;BME280;1994;48.640;8.894;2022-09-25T06:03:56;95718.09;;;11.80;100.00
3960;BME280;1994;48.640;8.894;2022-09-25T06:06:22;95719.66;;;11.81;100.00
3960;BME280;1994;48.640;8.894;2022-09-25T06:08:48;95725.84;;;11.75;100.00
3960;BME280;1994;48.640;8.894;2022-09-25T06:11:13;95723.28;;;11.80;100.00
3960;BME280;1994;48.640;8.894;2022-09-25T06:13:39;95717.56;;;11.78;100.00
3960;BME280;1994;48.640;8.894;2022-09-25T06:16:13;95722.28;;;11.86;100.00
3960;BME280;1994;48.640;8.894;2022-09-25T06:18:46;95716.63;;;11.94;100.00
3960;BME280;1994;48.640;8.894;2022-09-25T06:21:13;95719.78;;;12.01;100.00
3960;BME280;1994;48.640;8.894;2022-09-25T06:23:41;95721.78;;;11.89;100.00
3960;BME280;1994;48.640;8.894;2022-09-25T06:26:07;95725.41;;;11.88;100.00
3960;BME280;1994;48.640;8.894;2022-09-25T06:28:34;95717.03;;;11.81;100.00
3960;BME280;1994;48.640;8.894;2022-09-25T06:31:02;95719.66;;;11.81;100.00
3960;BME280;1994;48.640;8.894;2022-09-25T06:33:28;95723.03;;;11.81;100.00
3960;BME280;1994;48.640;8.894;2022-09-25T06:35:54;95725.09;;;11.84;100.00
3960;BME280;1994;48.640;8.894;2022-09-25T06:38:20;95730.59;;;11.88;100.00
3960;BME280;1994;48.640;8.894;2022-09-25T06:40:46;95734.50;;;11.90;100.00
3960;BME280;1994;48.640;8.894;2022-09-25T06:43:14;95729.84;;;11.92;100.00
3960;BME280;1994;48.640;8.894;2022-09-25T06:45:41;95736.84;;;11.92;100.00
3960;BME280;1994;48.640;8.894;2022-09-25T06:48:12;95725.34;;;11.78;100.00
3960;BME280;1994;48.640;8.894;2022-09-25T06:50:53;95726.88;;;11.74;100.00
3960;BME280;1994;48.640;8.894;2022-09-25T06:53:23;95733.59;;;11.70;100.00
3960;BME280;1994;48.640;8.894;2022-09-25T06:55:50;95733.59;;;11.70;100.00
3960;BME280;1994;48.640;8.894;2022-09-25T06:58:21;95740.84;;;11.68;100.00
3960;BME280;1994;48.640;8.894;2022-09-25T07:00:52;95735.41;;;11.69;100.00
3960;BME280;1994;48.640;8.894;2022-09-25T07:03:18;95738.78;;;11.70;100.00
3960;BME280;1994;48.640;8.894;2022-09-25T07:06:05;95741.38;;;11.70;100.00
3960;BME280;1994;48.640;8.894;2022-09-25T07:08:32;95736.22;;;11.75;100.00
3960;BME280;1994;48.640;8.894;2022-09-25T07:10:58;95742.91;;;11.71;100.00
3960;BME280;1994;48.640;8.894;2022-09-25T07:13:27;95748.09;;;11.66;100.00
3960;BME280;1994;48.640;8.894;2022-09-25T07:15:57;95733.06;;;11.68;100.00
3960;BME280;1994;48.640;8.894;2022-09-25T07:18:25;95742.91;;;11.66;100.00
3960;BME280;1994;48.640;8.894;2022-09-25T07:20:52;95732.09;;;11.79;100.00
3960;BME280;1994;48.640;8.894;2022-09-25T07:23:20;95738.91;;;11.90;100.00
3960;BME280;1994;48.640;8.894;2022-09-25T07:25:48;95748.28;;;11.96;100.00
3960;BME280;1994;48.640;8.894;2022-09-25T07:28:15;95739.41;;;11.82;100.00
3960;BME280;1994;48.640;8.894;2022-09-25T07:30:43;95748.22;;;11.86;100.00
3960;BME280;1994;48.640;8.894;2022-09-25T07:33:09;95740.41;;;11.81;100.00
3960;BME280;1994;48.640;8.894;2022-09-25T07:35:36;95742.03;;;11.92;100.00
3960;BME280;1994;48.640;8.894;2022-09-25T07:38:02;95738.94;;;11.95;100.00
3960;BME280;1994;48.640;8.894;2022-09-25T07:40:29;95737.91;;;11.96;100.00
3960;BME280;1994;48.640;8.894;2022-09-25T07:43:03;95739.97;;;11.94;100.00
3960;BME280;1994;48.640;8.894;2022-09-25T07:45:30;95742.09;;;12.02;100.00
3960;BME280;1994;48.640;8.894;2022-09-25T07:47:57;95729.94;;;12.07;100.00
3960;BME280;1994;48.640;8.894;2022-09-25T07:50:23;95740.06;;;12.14;100.00
3960;BME280;1994;48.640;8.894;2022-09-25T07:52:49;95743.28;;;12.26;100.00
3960;BME280;1994;48.640;8.894;2022-09-25T07:55:15;95745.31;;;12.24;100.00
3960;BME280;1994;48.640;8.894;2022-09-25T07:57:40;95744.50;;;12.13;100.00
3960;BME280;1994;48.640;8.894;2022-09-25T08:00:10;95745.84;;;12.21;100.00
3960;BME280;1994;48.640;8.894;2022-09-25T08:02:36;95737.47;;;12.14;100.00
3960;BME280;1994;48.640;8.894;2022-09-25T08:05:01;95737.50;;;12.19;100.00
3960;BME280;1994;48.640;8.894;2022-09-25T08:07:28;95743.22;;;12.16;100.00
3960;BME280;1994;48.640;8.894;2022-09-25T08:09:53;95754.16;;;12.23;100.00
3960;BME280;1994;48.640;8.894;2022-09-25T08:12:20;95748.50;;;12.36;100.00
3960;BME280;1994;48.640;8.894;2022-09-25T08:14:50;95743.31;;;12.36;100.00
3960;BME280;1994;48.640;8.894;2022-09-25T08:17:16;95746.44;;;12.38;100.00
3960;BME280;1994;48.640;8.894;2022-09-25T08:19:43;95745.66;;;12.37;100.00
3960;BME280;1994;48.640;8.894;2022-09-25T08:22:08;95747.97;;;12.34;100.00
3960;BME280;1994;48.640;8.894;2022-09-25T08:24:34;95744.91;;;12.42;100.00
3960;BME280;1994;48.640;8.894;2022-09-25T08:27:00;95742.34;;;12.52;100.00
3960;BME280;1994;48.640;8.894;2022-09-25T08:29:26;95739.50;;;12.53;100.00
3960;BME280;1994;48.640;8.894;2022-09-25T08:31:52;95742.38;;;12.62;100.00
3960;BME280;1994;48.640;8.894;2022-09-25T08:34:18;95741.03;;;12.54;100.00
3960;BME280;1994;48.640;8.894;2022-09-25T08:36:44;95746.03;;;12.61;100.00
3960;BME280;1994;48.640;8.894;2022-09-25T08:39:12;95741.03;;;12.54;100.00
3960;BME280;1994;48.640;8.894;2022-09-25T08:41:49;95743.41;;;12.56;100.00
3960;BME280;1994;48.640;8.894;2022-09-25T08:44:35;95738.72;;;12.53;100.00
3960;BME280;1994;48.640;8.894;2022-09-25T08:47:17;95742.84;;;12.49;100.00
3960;BME280;1994;48.640;8.894;2022-09-25T08:50:08;95740.06;;;12.70;100.00
3960;BME280;1994;48.640;8.894;2022-09-25T08:52:36;95735.97;;;12.84;100.00
3960;BME280;1994;48.640;8.894;2022-09-25T08:55:29;95736.75;;;12.95;100.00
3960;BME280;1994;48.640;8.894;2022-09-25T08:58:23;95736.28;;;12.98;100.00
3960;BME280;1994;48.640;8.894;2022-09-25T09:00:57;95745.13;;;12.97;100.00
3960;BME280;1994;48.640;8.894;2022-09-25T09:03:25;95745.06;;;12.87;100.00
3960;BME280;1994;48.640;8.894;2022-09-25T09:06:05;95733.94;;;12.96;100.00
3960;BME280;1994;48.640;8.894;2022-09-25T09:08:35;95739.69;;;13.13;100.00
3960;BME280;1994;48.640;8.894;2022-09-25T09:11:18;95731.09;;;12.98;100.00
3960;BME280;1994;48.640;8.894;2022-09-25T09:13:54;95738.38;;;13.16;100.00
3960;BME280;1994;48.640;8.894;2022-09-25T09:18:51;95730.09;;;13.59;100.00
3960;BME280;1994;48.640;8.894;2022-09-25T09:21:34;95735.28;;;13.64;100.00
3960;BME280;1994;48.640;8.894;2022-09-25T09:36:45;95729.03;;;13.90;100.00
3960;BME280;1994;48.640;8.894;2022-09-25T09:43:04;95724.78;;;14.14;99.72
3960;BME280;1994;48.640;8.894;2022-09-25T09:45:49;95721.69;;;14.02;100.00
3960;BME280;1994;48.640;8.894;2022-09-25T09:51:44;95725.59;;;14.04;97.90
3960;BME280;1994;48.640;8.894;2022-09-25T09:54:17;95730.53;;;14.21;98.53
3960;BME280;1994;48.640;8.894;2022-09-25T09:56:49;95729.47;;;14.27;96.09
3960;BME280;1994;48.640;8.894;2022-09-25T09:59:20;95723.69;;;14.50;95.39
3960;BME280;1994;48.640;8.894;2022-09-25T10:02:08;95722.59;;;14.56;90.74
3960;BME280;1994;48.640;8.894;2022-09-25T10:04:42;95714.16;;;14.74;90.32
3960;BME280;1994;48.640;8.894;2022-09-25T10:07:15;95714.13;;;14.84;88.79
3960;BME280;1994;48.640;8.894;2022-09-25T10:09:43;95716.81;;;14.69;88.89
3960;BME280;1994;48.640;8.894;2022-09-25T10:12:12;95713.53;;;14.92;90.55
3960;BME280;1994;48.640;8.894;2022-09-25T10:14:45;95715.69;;;14.85;90.75
3960;BME280;1994;48.640;8.894;2022-09-25T10:17:11;95717.63;;;15.08;90.94
3960;BME280;1994;48.640;8.894;2022-09-25T10:19:54;95713.88;;;15.24;89.88
3960;BME280;1994;48.640;8.894;2022-09-25T10:22:26;95722.75;;;15.23;85.43
3960;BME280;1994;48.640;8.894;2022-09-25T10:24:55;95715.38;;;15.35;84.59
3960;BME280;1994;48.640;8.894;2022-09-25T10:27:35;95716.91;;;15.41;86.38
3960;BME280;1994;48.640;8.894;2022-09-25T10:38:04;95712.00;;;14.91;89.07
3960;BME280;1994;48.640;8.894;2022-09-25T10:40:34;95718.44;;;15.03;89.36
3960;BME280;1994;48.640;8.894;2022-09-25T10:45:41;95723.84;;;15.17;87.12
3960;BME280;1994;48.640;8.894;2022-09-25T10:48:34;95721.88;;;15.32;86.21
3960;BME280;1994;48.640;8.894;2022-09-25T10:51:19;95724.88;;;15.54;85.80
3960;BME280;1994;48.640;8.894;2022-09-25T10:53:48;95715.75;;;15.52;83.47
3960;BME280;1994;48.640;8.894;2022-09-25T10:56:24;95715.75;;;15.52;84.31
3960;BME280;1994;48.640;8.894;2022-09-25T10:59:01;95717.22;;;15.29;82.98
3960;BME280;1994;48.640;8.894;2022-09-25T11:01:37;95719.22;;;15.04;83.89
3960;BME280;1994;48.640;8.894;2022-09-25T11:04:26;95721.09;;;15.42;84.85
3960;BME280;1994;48.640;8.894;2022-09-25T11:06:59;95723.94;;;15.74;83.72
3960;BME280;1994;48.640;8.894;2022-09-25T11:09:28;95726.13;;;15.62;82.07
3960;BME280;1994;48.640;8.894;2022-09-25T11:12:17;95721.69;;;15.62;82.29
3960;BME280;1994;48.640;8.894;2022-09-25T11:15:04;95726.13;;;15.62;84.12
3960;BME280;1994;48.640;8.894;2022-09-25T11:17:40;95728.88;;;15.47;84.39
3960;BME280;1994;48.640;8.894;2022-09-25T11:23:21;95730.09;;;15.54;83.57
3960;BME280;1994;48.640;8.894;2022-09-25T11:26:04;95726.31;;;15.42;83.96
3960;BME280;1994;48.640;8.894;2022-09-25T11:31:35;95724.28;;;15.24;82.53
3960;BME280;1994;48.640;8.894;2022-09-25T11:34:49;95725.28;;;15.38;83.63
3960;BME280;1994;48.640;8.894;2022-09-25T11:37:42;95726.03;;;15.38;82.25
3960;BME280;1994;48.640;8.894;2022-09-25T11:43:41;95725.81;;;15.35;80.78
3960;BME280;1994;48.640;8.894;2022-09-25T11:46:58;95726.84;;;15.39;80.01
3960;BME280;1994;48.640;8.894;2022-09-25T11:49:32;95722.69;;;15.38;81.76
3960;BME280;1994;48.640;8.894;2022-09-25T11:52:19;95720.06;;;15.38;83.53
3960;BME280;1994;48.640;8.894;2022-09-25T11:55:33;95717.19;;;15.39;85.39
3960;BME280;1994;48.640;8.894;2022-09-25T11:58:23;95716.16;;;15.35;84.10
3960;BME280;1994;48.640;8.894;2022-09-25T12:03:51;95724.06;;;15.20;84.13
3960;BME280;1994;48.640;8.894;2022-09-25T12:12:44;95710.88;;;15.02;88.49
3960;BME280;1994;48.640;8.894;2022-09-25T12:19:14;95705.25;;;14.85;89.84
3960;BME280;1994;48.640;8.894;2022-09-25T12:27:45;95703.16;;;14.87;88.87
3960;BME280;1994;48.640;8.894;2022-09-25T12:30:20;95702.31;;;14.96;89.02
3960;BME280;1994;48.640;8.894;2022-09-25T12:36:16;95693.22;;;15.27;86.85
3960;BME280;1994;48.640;8.894;2022-09-25T12:38:56;95688.38;;;15.78;86.46
3960;BME280;1994;48.640;8.894;2022-09-25T12:42:18;95686.41;;;16.17;78.20
3960;BME280;1994;48.640;8.894;2022-09-25T12:45:15;95687.53;;;16.58;79.53
3960;BME280;1994;48.640;8.894;2022-09-25T12:51:05;95683.38;;;17.63;77.39
3960;BME280;1994;48.640;8.894;2022-09-25T12:53:42;95686.28;;;17.61;73.43
3960;BME280;1994;48.640;8.894;2022-09-25T12:59:19;95680.63;;;17.04;73.32
3960;BME280;1994;48.640;8.894;2022-09-25T13:02:24;95685.56;;;16.87;74.11
3960;BME280;1994;48.640;8.894;2022-09-25T13:11:09;95679.41;;;16.59;70.83
3960;BME280;1994;48.640;8.894;2022-09-25T13:13:44;95675.53;;;16.57;70.70
3960;BME280;1994;48.640;8.894;2022-09-25T13:16:13;95681.25;;;16.59;73.29
3960;BME280;1994;48.640;8.894;2022-09-25T13:18:47;95686.63;;;16.67;74.49
3960;BME280;1994;48.640;8.894;2022-09-25T13:21:30;95679.31;;;16.46;75.83
3960;BME280;1994;48.640;8.894;2022-09-25T13:23:58;95675.22;;;16.58;75.58
3960;BME280;1994;48.640;8.894;2022-09-25T13:26:25;95677.84;;;16.40;76.08
3960;BME280;1994;48.640;8.894;2022-09-25T13:31:28;95675.72;;;16.37;76.02
3960;BME280;1994;48.640;8.894;2022-09-25T13:39:05;95672.63;;;16.35;77.21
3960;BME280;1994;48.640;8.894;2022-09-25T13:42:02;95681.28;;;16.30;78.16
3960;BME280;1994;48.640;8.894;2022-09-25T13:47:42;95676.06;;;16.30;78.30
3960;BME280;1994;48.640;8.894;2022-09-25T14:03:46;95669.84;;;16.50;78.17
3960;BME280;1994;48.640;8.894;2022-09-25T14:06:25;95665.28;;;16.60;79.72
3960;BME280;1994;48.640;8.894;2022-09-25T14:08:55;95665.09;;;16.75;77.30
3960;BME280;1994;48.640;8.894;2022-09-25T14:11:30;95666.97;;;16.88;72.99
3960;BME280;1994;48.640;8.894;2022-09-25T14:13:59;95660.97;;;16.88;73.84
3960;BME280;1994;48.640;8.894;2022-09-25T14:16:39;95660.97;;;16.88;74.56
3960;BME280;1994;48.640;8.894;2022-09-25T14:19:07;95663.66;;;16.83;75.52
3960;BME280;1994;48.640;8.894;2022-09-25T14:21:34;95663.66;;;16.83;76.41
3960;BME280;1994;48.640;8.894;2022-09-25T14:24:26;95659.13;;;16.70;76.52
3960;BME280;1994;48.640;8.894;2022-09-25T14:26:57;95657.63;;;16.64;75.09
3960;BME280;1994;48.640;8.894;2022-09-25T14:29:30;95661.03;;;16.64;75.60
3960;BME280;1994;48.640;8.894;2022-09-25T14:35:07;95663.50;;;16.56;76.46
3960;BME280;1994;48.640;8.894;2022-09-25T14:47:42;95664.47;;;16.36;75.41
3960;BME280;1994;48.640;8.894;2022-09-25T14:50:22;95661.72;;;16.28;76.07
3960;BME280;1994;48.640;8.894;2022-09-25T14:52:57;95665.44;;;16.22;76.21
3960;BME280;1994;48.640;8.894;2022-09-25T14:55:35;95656.53;;;16.23;77.80
3960;BME280;1994;48.640;8.894;2022-09-25T14:58:03;95660.16;;;16.27;76.94
3960;BME280;1994;48.640;8.894;2022-09-25T15:00:34;95660.28;;;16.17;76.74
3960;BME280;1994;48.640;8.894;2022-09-25T15:03:00;95656.31;;;16.19;77.68
3960;BME280;1994;48.640;8.894;2022-09-25T15:05:32;95659.47;;;16.21;76.94
3960;BME280;1994;48.640;8.894;2022-09-25T15:08:17;95653.81;;;16.33;76.55
3960;BME280;1994;48.640;8.894;2022-09-25T15:10:43;95654.81;;;16.37;77.42
3960;BME280;1994;48.640;8.894;2022-09-25T15:13:13;95647.50;;;16.39;76.76
3960;BME280;1994;48.640;8.894;2022-09-25T15:15:46;95634.69;;;16.37;75.66
3960;BME280;1994;48.640;8.894;2022-09-25T15:18:38;95636.91;;;16.49;75.58
3960;BME280;1994;48.640;8.894;2022-09-25T15:21:19;95639.03;;;16.47;76.14
3960;BME280;1994;48.640;8.894;2022-09-25T15:23:46;95637.38;;;16.56;75.56
3960;BME280;1994;48.640;8.894;2022-09-25T15:26:15;95636.38;;;16.52;74.44
3960;BME280;1994;48.640;8.894;2022-09-25T15:28:43;95641.00;;;16.55;74.13
3960;BME280;1994;48.640;8.894;2022-09-25T15:31:09;95639.03;;;16.47;73.40
3960;BME280;1994;48.640;8.894;2022-09-25T15:33:37;95643.69;;;16.50;74.14
3960;BME280;1994;48.640;8.894;2022-09-25T15:36:18;95635.94;;;16.21;74.79
3960;BME280;1994;48.640;8.894;2022-09-25T15:38:57;95641.50;;;16.15;76.08
3960;BME280;1994;48.640;8.894;2022-09-25T15:41:25;95636.28;;;16.15;76.12
3960;BME280;1994;48.640;8.894;2022-09-25T15:43:51;95639.94;;;16.14;74.60
3960;BME280;1994;48.640;8.894;2022-09-25T15:48:57;95641.72;;;15.95;76.15
3960;BME280;1994;48.640;8.894;2022-09-25T15:51:28;95636.59;;;15.85;77.26
3960;BME280;1994;48.640;8.894;2022-09-25T15:54:31;95642.38;;;15.82;76.22
3960;BME280;1994;48.640;8.894;2022-09-25T15:57:00;95644.50;;;15.80;77.55
3960;BME280;1994;48.640;8.894;2022-09-25T15:59:39;95641.47;;;15.68;76.88
3960;BME280;1994;48.640;8.894;2022-09-25T16:02:29;95641.03;;;15.61;77.94
3960;BME280;1994;48.640;8.894;2022-09-25T16:05:18;95648.16;;;15.55;78.47